Time;durP1;ratioP1;P1;durP2;ratioP2;P2;SDS_P1;SDS_P2;PMS_P1;PMS_P2;Temp;Humidity;BMP_temperature;BMP_pressure;BME280_temperature;BME280_humidity;BME280_pressure;Samples;Min_cycle;Max_cycle;Signal;HPM_P1;HPM_P2
2023/09/21 06:36:48;;;;;;;2.00;1.10;;;17.30;99.90;;;;;;4956184;28;20232;-72
2023/09/21 06:39:16;;;;;;;4.00;0.93;;;17.30;99.90;;;;;;4958001;29;20208;-72
2023/09/21 06:41:44;;;;;;;1.60;0.90;;;17.40;99.90;;;;;;4935041;29;20237;-72
2023/09/21 06:44:12;;;;;;;2.97;1.20;;;17.50;99.90;;;;;;4930614;29;20260;-72
2023/09/21 06:46:39;;;;;;;2.60;1.15;;;17.60;99.90;;;;;;4938097;29;20295;-72
2023/09/21 06:49:06;;;;;;;2.33;1.00;;;17.70;99.90;;;;;;4938254;29;20734;-72
2023/09/21 06:51:33;;;;;;;1.33;1.00;;;17.70;99.90;;;;;;4938814;29;20248;-73
2023/09/21 06:54:01;;;;;;;15.13;2.03;;;17.80;99.90;;;;;;4947564;29;20287;-73
2023/09/21 06:56:29;;;;;;;105.70;10.80;;;17.80;99.90;;;;;;4938268;29;20208;-72
2023/09/21 06:58:56;;;;;;;10.43;2.35;;;17.90;99.90;;;;;;4938255;29;20209;-72
2023/09/21 07:01:23;;;;;;;43.35;6.88;;;17.90;99.90;;;;;;4938511;29;20220;-74
2023/09/21 07:03:50;;;;;;;5.65;1.17;;;18.00;99.90;;;;;;4937876;29;20205;-72
2023/09/21 07:06:19;;;;;;;19.23;3.00;;;18.10;99.90;;;;;;4937994;29;20271;-73
2023/09/21 07:08:46;;;;;;;173.85;15.98;;;18.00;99.90;;;;;;4937932;29;20201;-72
2023/09/21 07:11:15;;;;;;;95.47;11.13;;;18.00;99.90;;;;;;4935682;29;20300;-70
2023/09/21 07:13:42;;;;;;;31.17;3.77;;;17.90;99.90;;;;;;4940250;28;20205;-71
2023/09/21 07:16:09;;;;;;;23.57;3.47;;;17.90;99.90;;;;;;4937596;29;20212;-71
2023/09/21 07:18:37;;;;;;;17.23;2.10;;;17.70;99.90;;;;;;4948385;29;20630;-70
2023/09/21 07:21:05;;;;;;;147.97;15.77;;;17.60;99.90;;;;;;4957055;28;20254;-71
2023/09/21 07:23:32;;;;;;;50.08;7.10;;;17.50;99.90;;;;;;4937897;28;20237;-70
2023/09/21 07:25:59;;;;;;;22.50;3.33;;;17.30;99.90;;;;;;4937661;29;20228;-70
2023/09/21 07:28:30;;;;;;;2.50;1.03;;;17.30;99.90;;;;;;4937572;29;20228;-70
2023/09/21 07:30:57;;;;;;;7.70;0.90;;;17.30;99.90;;;;;;4949557;29;20698;-71
2023/09/21 07:33:25;;;;;;;8.80;1.83;;;17.30;99.90;;;;;;4938689;29;20640;-75
2023/09/21 07:35:53;;;;;;;40.43;4.07;;;17.30;99.90;;;;;;4937550;29;20792;-70
2023/09/21 07:38:21;;;;;;;33.33;4.53;;;17.30;99.90;;;;;;4937010;29;20212;-70
2023/09/21 07:40:48;;;;;;;39.63;5.23;;;17.30;99.90;;;;;;4936352;29;20672;-71
2023/09/21 07:43:16;;;;;;;0.70;0.50;;;17.30;99.90;;;;;;4936724;29;20260;-71
2023/09/21 07:45:47;;;;;;;2.40;0.57;;;17.20;99.90;;;;;;4936895;29;20710;-71
2023/09/21 07:48:15;;;;;;;2.53;1.03;;;17.20;99.90;;;;;;4937447;29;20295;-71
2023/09/21 07:50:43;;;;;;;1.00;0.40;;;17.20;99.90;;;;;;4937501;29;20213;-70
2023/09/21 07:53:10;;;;;;;0.70;0.40;;;17.20;99.90;;;;;;4936835;29;20229;-70
2023/09/21 07:55:37;;;;;;;1.30;0.40;;;17.10;99.90;;;;;;4937022;29;20209;-72
2023/09/21 07:58:04;;;;;;;0.87;0.50;;;17.00;99.90;;;;;;4936947;29;20645;-68
2023/09/21 08:00:31;;;;;;;0.60;0.40;;;17.10;99.90;;;;;;4937176;29;20212;-69
2023/09/21 08:02:59;;;;;;;0.63;0.30;;;17.00;99.90;;;;;;4936834;29;20319;-71
2023/09/21 08:05:30;;;;;;;8.43;1.57;;;16.90;99.90;;;;;;4936623;29;20219;-72
2023/09/21 08:07:57;;;;;;;4.10;0.40;;;16.90;99.90;;;;;;4940822;28;20587;-70
2023/09/21 08:10:24;;;;;;;1.97;0.60;;;16.80;99.90;;;;;;4936340;29;20240;-69
2023/09/21 08:12:51;;;;;;;0.60;0.30;;;16.80;99.90;;;;;;4936335;29;20239;-69
2023/09/21 08:15:20;;;;;;;2.00;0.60;;;16.80;99.90;;;;;;4936305;29;20205;-71
2023/09/21 08:17:47;;;;;;;2.40;0.50;;;16.80;99.90;;;;;;4936344;29;20295;-70
2023/09/21 08:20:15;;;;;;;0.57;0.40;;;16.80;99.90;;;;;;4936611;29;20312;-70
2023/09/21 08:22:47;;;;;;;1.25;0.63;;;17.00;99.90;;;;;;4935976;29;20225;-70
2023/09/21 08:25:14;;;;;;;4.30;1.00;;;17.10;99.90;;;;;;4936439;29;20212;-70
2023/09/21 08:27:41;;;;;;;4.33;0.77;;;17.00;99.90;;;;;;4936274;29;20263;-72
2023/09/21 08:30:09;;;;;;;7.37;1.10;;;17.10;99.90;;;;;;4936455;29;20236;-69
2023/09/21 08:32:35;;;;;;;0.97;0.60;;;17.20;99.90;;;;;;4937176;28;20251;-68
2023/09/21 08:35:02;;;;;;;17.92;2.60;;;17.30;99.90;;;;;;4936937;29;20312;-71
2023/09/21 08:37:31;;;;;;;13.25;2.65;;;17.50;99.90;;;;;;4936648;29;20608;-70
2023/09/21 08:39:58;;;;;;;5.95;1.30;;;17.60;99.90;;;;;;4955212;28;20239;-74
2023/09/21 08:42:26;;;;;;;2.22;0.70;;;17.80;99.90;;;;;;4942886;29;20319;-73
2023/09/21 08:44:53;;;;;;;2.00;0.85;;;17.80;99.90;;;;;;4935923;29;20211;-73
2023/09/21 08:47:21;;;;;;;6.60;0.95;;;17.90;99.90;;;;;;4939968;29;20342;-70
2023/09/21 08:49:48;;;;;;;2.03;1.47;;;18.00;99.90;;;;;;4955081;29;20730;-69
2023/09/21 08:52:15;;;;;;;1.27;0.60;;;18.00;99.90;;;;;;4946089;28;20324;-69
2023/09/21 08:54:46;;;;;;;4.63;1.00;;;18.00;99.90;;;;;;4935970;29;20292;-71
2023/09/21 08:57:13;;;;;;;14.52;2.10;;;18.10;99.90;;;;;;4936028;29;20227;-69
2023/09/21 08:59:42;;;;;;;2.40;0.67;;;18.10;99.90;;;;;;4940539;29;20200;-70
2023/09/21 09:02:12;;;;;;;3.17;0.95;;;18.10;99.90;;;;;;4947313;28;20256;-70
2023/09/21 09:04:40;;;;;;;2.17;1.55;;;18.20;99.90;;;;;;4935789;29;20205;-73
2023/09/21 09:07:07;;;;;;;1.67;1.02;;;18.30;99.90;;;;;;4935322;29;20671;-72
2023/09/21 09:09:36;;;;;;;1.38;0.70;;;18.20;99.90;;;;;;4935770;29;20276;-70
2023/09/21 09:12:04;;;;;;;1.10;0.75;;;18.30;99.90;;;;;;4935401;29;20233;-71
2023/09/21 09:14:31;;;;;;;2.55;0.80;;;18.30;99.90;;;;;;4935813;29;20246;-71
2023/09/21 09:16:58;;;;;;;2.50;0.70;;;18.30;99.90;;;;;;4935877;29;20706;-71
2023/09/21 09:19:27;;;;;;;1.77;0.50;;;18.40;99.90;;;;;;4935578;29;20244;-72
2023/09/21 09:21:54;;;;;;;3.45;0.95;;;18.40;99.90;;;;;;4935615;29;20315;-71
2023/09/21 09:24:22;;;;;;;1.55;0.90;;;18.50;99.90;;;;;;4935999;29;20236;-70
2023/09/21 09:26:49;;;;;;;1.73;1.00;;;18.40;99.90;;;;;;4935810;29;20237;-70
2023/09/21 09:29:18;;;;;;;4.22;1.02;;;18.50;99.90;;;;;;4935444;29;20582;-71
2023/09/21 09:31:48;;;;;;;1.73;0.80;;;18.50;99.90;;;;;;4935563;29;20344;-70
2023/09/21 09:34:17;;;;;;;2.95;0.90;;;18.70;99.90;;;;;;4935586;29;20739;-71
2023/09/21 09:36:46;;;;;;;0.85;0.55;;;18.70;99.90;;;;;;4935441;29;20220;-70
2023/09/21 09:39:15;;;;;;;9.57;0.80;;;18.80;99.90;;;;;;4935814;29;20679;-70
2023/09/21 09:41:42;;;;;;;1.70;0.75;;;18.90;99.90;;;;;;4935667;29;20228;-69
2023/09/21 09:44:12;;;;;;;1.75;0.70;;;19.00;99.90;;;;;;4935481;29;20299;-69
2023/09/21 09:46:43;;;;;;;1.50;0.70;;;19.00;99.90;;;;;;4935372;29;20268;-69
2023/09/21 09:49:11;;;;;;;2.72;0.80;;;18.90;99.90;;;;;;4935793;29;20221;-69
2023/09/21 09:51:44;;;;;;;1.73;0.60;;;19.00;99.90;;;;;;4935419;29;20237;-69
2023/09/21 09:54:13;;;;;;;1.23;0.50;;;18.70;99.90;;;;;;4935678;29;20204;-69
2023/09/21 09:56:41;;;;;;;4.97;0.85;;;18.60;99.90;;;;;;4935027;29;20266;-69
2023/09/21 09:59:11;;;;;;;7.32;0.90;;;18.70;99.90;;;;;;4942562;28;20209;-69
2023/09/21 10:01:41;;;;;;;8.73;1.00;;;18.70;99.90;;;;;;4940359;29;20767;-70
2023/09/21 10:04:09;;;;;;;0.82;0.60;;;18.70;99.90;;;;;;4947148;28;20231;-70
2023/09/21 10:06:36;;;;;;;2.33;0.57;;;18.60;99.90;;;;;;4946431;28;20255;-71
2023/09/21 10:09:10;;;;;;;1.45;0.60;;;18.60;99.90;;;;;;4948175;28;20204;-71
2023/09/21 10:11:40;;;;;;;2.33;0.80;;;18.60;99.90;;;;;;4948687;28;20224;-71
2023/09/21 10:14:11;;;;;;;5.50;0.80;;;18.70;99.90;;;;;;4948495;28;20200;-71
2023/09/21 10:16:39;;;;;;;5.03;0.80;;;18.80;99.90;;;;;;4944895;29;20342;-71
2023/09/21 10:19:17;;;;;;;14.65;1.27;;;18.90;99.90;;;;;;4947684;28;20208;-71
2023/09/21 10:21:45;;;;;;;3.03;0.75;;;18.90;99.90;;;;;;4946021;29;20220;-72
2023/09/21 10:24:18;;;;;;;7.53;0.70;;;19.00;99.90;;;;;;4946211;28;20201;-72
2023/09/21 10:26:49;;;;;;;2.40;0.55;;;19.20;99.90;;;;;;4947361;28;20286;-71
2023/09/21 10:29:19;;;;;;;3.40;0.50;;;19.00;99.90;;;;;;4948988;29;20200;-71
2023/09/21 10:31:54;;;;;;;0.70;0.38;;;18.80;99.90;;;;;;4948110;29;20244;-72
2023/09/21 10:34:25;;;;;;;4.53;0.50;;;18.70;99.90;;;;;;4945210;28;20663;-71
2023/09/21 10:36:56;;;;;;;0.57;0.32;;;18.70;99.90;;;;;;4946212;28;20564;-71
2023/09/21 10:39:26;;;;;;;0.77;0.63;;;18.70;99.90;;;;;;4947470;28;20204;-71
2023/09/21 10:41:55;;;;;;;1.35;0.40;;;18.60;99.90;;;;;;4948649;29;20591;-70
2023/09/21 10:45:07;;;;;;;0.65;0.32;;;18.50;99.90;;;;;;4940514;29;20204;-70
2023/09/21 10:47:49;;;;;;;0.88;0.40;;;18.50;99.90;;;;;;4938743;29;20244;-70
2023/09/21 10:50:19;;;;;;;1.38;0.40;;;18.40;99.90;;;;;;4938584;29;20664;-71
2023/09/21 10:52:47;;;;;;;0.57;0.30;;;18.30;99.90;;;;;;4938236;29;20252;-70
2023/09/21 10:55:16;;;;;;;0.45;0.40;;;18.30;99.90;;;;;;4938044;29;20627;-70
2023/09/21 10:57:44;;;;;;;1.05;0.45;;;18.40;99.90;;;;;;4938494;29;20623;-70
2023/09/21 11:00:16;;;;;;;1.58;0.45;;;18.60;99.90;;;;;;4938550;29;20264;-70
2023/09/21 11:02:46;;;;;;;0.50;0.40;;;18.60;99.90;;;;;;4938133;29;20229;-71
2023/09/21 11:05:16;;;;;;;0.50;0.30;;;18.70;99.90;;;;;;4937971;29;20212;-70
2023/09/21 11:07:44;;;;;;;0.60;0.30;;;18.90;99.90;;;;;;4937988;29;20328;-70
2023/09/21 11:10:12;;;;;;;0.35;0.30;;;19.00;99.90;;;;;;4938413;29;20213;-70
2023/09/21 11:12:40;;;;;;;1.20;0.40;;;18.90;99.90;;;;;;4938363;29;20365;-71
2023/09/21 11:15:10;;;;;;;1.27;0.50;;;18.80;99.90;;;;;;4938033;29;20212;-71
2023/09/21 11:17:37;;;;;;;1.80;0.50;;;18.80;99.90;;;;;;4938026;29;20251;-71
2023/09/21 11:20:05;;;;;;;1.35;0.40;;;18.80;99.90;;;;;;4937891;29;20300;-70
2023/09/21 11:22:33;;;;;;;0.63;0.45;;;19.00;99.90;;;;;;4937660;29;20225;-70
2023/09/21 11:25:02;;;;;;;2.38;0.50;;;19.10;99.90;;;;;;4937935;29;20217;-70
2023/09/21 11:27:29;;;;;;;0.85;0.40;;;19.00;99.90;;;;;;4937788;29;20319;-70
2023/09/21 11:29:56;;;;;;;0.57;0.40;;;19.00;99.90;;;;;;4937815;29;20636;-71
2023/09/21 11:32:23;;;;;;;0.95;0.40;;;18.90;99.90;;;;;;4937577;29;20271;-71
2023/09/21 11:34:58;;;;;;;1.83;0.40;;;18.80;99.90;;;;;;4937602;29;20244;-71
2023/09/21 11:37:28;;;;;;;2.30;0.45;;;18.80;99.90;;;;;;4937751;29;20212;-70
2023/09/21 11:39:55;;;;;;;0.50;0.38;;;19.00;99.90;;;;;;4937894;29;20209;-70
2023/09/21 11:42:25;;;;;;;1.42;0.60;;;19.00;99.90;;;;;;4937253;29;20288;-70
2023/09/21 11:44:52;;;;;;;0.40;0.40;;;18.80;99.90;;;;;;4937527;29;20299;-71
2023/09/21 11:47:22;;;;;;;0.55;0.30;;;18.60;99.90;;;;;;4937530;29;20287;-71
2023/09/21 11:49:53;;;;;;;0.52;0.47;;;18.40;99.90;;;;;;4937421;29;20243;-71
2023/09/21 11:52:22;;;;;;;0.40;0.30;;;18.30;99.90;;;;;;4937321;29;20236;-70
2023/09/21 11:54:49;;;;;;;0.52;0.38;;;18.30;99.90;;;;;;4937491;29;20304;-71
2023/09/21 11:57:16;;;;;;;1.35;0.40;;;18.20;99.90;;;;;;4937353;29;20300;-71
2023/09/21 11:59:45;;;;;;;1.55;0.40;;;18.10;99.90;;;;;;4937098;29;20244;-71
2023/09/21 12:02:14;;;;;;;0.57;0.40;;;18.10;99.90;;;;;;4936928;29;20236;-70
2023/09/21 12:04:42;;;;;;;4.13;0.63;;;18.20;99.90;;;;;;4937113;29;20256;-70
2023/09/21 12:07:09;;;;;;;1.10;0.43;;;18.20;99.90;;;;;;4936862;29;20213;-71
2023/09/21 12:09:37;;;;;;;0.98;0.50;;;18.20;99.90;;;;;;4937026;29;20219;-70
2023/09/21 12:12:06;;;;;;;1.55;0.40;;;18.10;99.90;;;;;;4937073;29;20319;-75
2023/09/21 12:14:34;;;;;;;1.30;0.60;;;18.10;99.90;;;;;;4933344;29;20251;-75
2023/09/21 12:17:08;;;;;;;2.05;0.60;;;18.30;99.90;;;;;;4935756;29;20217;-76
2023/09/21 12:19:36;;;;;;;1.67;0.45;;;18.20;99.90;;;;;;4935819;29;20236;-74
2023/09/21 12:22:05;;;;;;;0.98;0.40;;;18.00;99.90;;;;;;4935685;29;20235;-77
2023/09/21 12:24:34;;;;;;;1.13;0.50;;;18.20;99.90;;;;;;4934838;29;20297;-78
2023/09/21 12:27:01;;;;;;;1.08;0.55;;;18.20;99.90;;;;;;4934987;29;20801;-76
2023/09/21 12:29:28;;;;;;;1.90;0.47;;;18.20;99.90;;;;;;4935010;29;20687;-72
2023/09/21 12:31:56;;;;;;;0.68;0.50;;;18.20;99.90;;;;;;4935649;29;20311;-73
2023/09/21 12:34:25;;;;;;;0.75;0.40;;;18.20;99.90;;;;;;4935501;29;20216;-77
2023/09/21 12:36:52;;;;;;;0.75;0.40;;;18.20;99.90;;;;;;4935128;29;20244;-76
2023/09/21 12:39:22;;;;;;;0.73;0.30;;;18.10;99.90;;;;;;4935410;29;20241;-78
2023/09/21 12:41:48;;;;;;;2.47;0.40;;;17.90;99.90;;;;;;4935249;29;20228;-78
2023/09/21 12:44:15;;;;;;;0.63;0.40;;;17.80;99.90;;;;;;4940375;29;20729;-76
2023/09/21 12:46:42;;;;;;;1.17;0.40;;;17.60;99.90;;;;;;4954229;28;20244;-73
2023/09/21 12:49:09;;;;;;;0.40;0.30;;;17.80;99.90;;;;;;4953695;29;20674;-74
2023/09/21 12:51:38;;;;;;;0.55;0.40;;;17.60;99.90;;;;;;4954029;28;20235;-73
2023/09/21 12:54:07;;;;;;;1.02;0.40;;;17.40;99.90;;;;;;4939832;29;20217;-74
2023/09/21 12:56:34;;;;;;;1.10;0.30;;;17.30;99.90;;;;;;4935405;29;20217;-75
2023/09/21 12:59:01;;;;;;;2.03;0.40;;;17.20;99.90;;;;;;4935022;29;20319;-74
2023/09/21 13:01:28;;;;;;;0.82;0.40;;;17.10;99.90;;;;;;4934739;29;20316;-74
2023/09/21 13:03:55;;;;;;;0.43;0.30;;;17.10;99.90;;;;;;4935000;29;20213;-76
2023/09/21 13:06:22;;;;;;;1.58;0.40;;;17.10;99.90;;;;;;4934615;29;20655;-74
2023/09/21 13:08:50;;;;;;;0.60;0.40;;;17.10;99.90;;;;;;4934789;29;20299;-75
2023/09/21 13:11:17;;;;;;;0.60;0.40;;;17.00;99.90;;;;;;4934535;29;20295;-74
2023/09/21 13:13:46;;;;;;;0.57;0.40;;;17.00;99.90;;;;;;4934303;29;20635;-73
2023/09/21 13:16:13;;;;;;;0.50;0.30;;;16.90;99.90;;;;;;4934950;29;20304;-76
2023/09/21 13:18:42;;;;;;;1.03;0.40;;;17.10;99.90;;;;;;4934565;29;20259;-77
2023/09/21 13:21:10;;;;;;;0.40;0.30;;;16.90;99.90;;;;;;4934752;29;20341;-75
2023/09/21 13:23:37;;;;;;;0.82;0.50;;;17.00;99.90;;;;;;4934797;29;20229;-75
2023/09/21 13:26:06;;;;;;;0.30;0.27;;;17.10;99.90;;;;;;4934121;29;20660;-73
2023/09/21 13:28:34;;;;;;;2.20;0.47;;;17.00;99.90;;;;;;4934794;29;20326;-75
2023/09/21 13:31:01;;;;;;;0.60;0.47;;;17.20;99.90;;;;;;4934389;29;20300;-76
2023/09/21 13:33:28;;;;;;;0.30;0.30;;;17.40;99.90;;;;;;4934766;29;20271;-74
2023/09/21 13:35:56;;;;;;;0.60;0.43;;;17.40;99.90;;;;;;4935771;29;20227;-74
2023/09/21 13:38:23;;;;;;;0.68;0.38;;;17.30;99.90;;;;;;4935264;29;20204;-75
2023/09/21 13:40:50;;;;;;;3.33;0.60;;;17.40;99.90;;;;;;4935783;29;20213;-75
2023/09/21 13:43:21;;;;;;;1.20;0.50;;;17.40;99.90;;;;;;4935841;29;20653;-76
2023/09/21 13:45:48;;;;;;;3.42;0.60;;;17.30;99.90;;;;;;4935728;29;20271;-75
2023/09/21 13:48:15;;;;;;;0.30;0.20;;;17.20;99.90;;;;;;4935639;29;20319;-74
2023/09/21 13:50:42;;;;;;;0.50;0.30;;;17.00;99.90;;;;;;4935808;29;20208;-74
2023/09/21 13:53:10;;;;;;;0.50;0.30;;;17.00;99.90;;;;;;4935318;29;20315;-75
2023/09/21 13:55:38;;;;;;;1.00;0.40;;;17.00;99.90;;;;;;4935483;29;20209;-75
2023/09/21 13:58:06;;;;;;;2.37;0.40;;;16.90;99.90;;;;;;4935482;29;20217;-75
2023/09/21 14:00:35;;;;;;;1.27;0.30;;;16.90;99.90;;;;;;4932460;29;20209;-76
2023/09/21 14:03:02;;;;;;;1.40;0.37;;;16.80;99.90;;;;;;4937914;28;20364;-74
2023/09/21 14:05:29;;;;;;;1.43;0.20;;;16.80;99.90;;;;;;4935939;29;20248;-77
2023/09/21 14:07:56;;;;;;;1.23;0.20;;;16.80;99.90;;;;;;4946369;29;20227;-74
2023/09/21 14:10:23;;;;;;;0.40;0.30;;;16.90;99.90;;;;;;4954540;29;20215;-71
2023/09/21 14:12:50;;;;;;;1.20;0.50;;;16.80;99.90;;;;;;4935163;29;20324;-69
2023/09/21 14:15:18;;;;;;;1.63;0.30;;;16.80;99.90;;;;;;4935073;29;20295;-73
2023/09/21 14:17:46;;;;;;;0.80;0.30;;;16.80;99.90;;;;;;4934117;29;20553;-75
2023/09/21 14:20:14;;;;;;;0.70;0.30;;;16.90;99.90;;;;;;4946914;29;20295;-75
2023/09/21 14:22:40;;;;;;;1.07;0.30;;;16.90;99.90;;;;;;4935639;29;20233;-74
2023/09/21 14:25:09;;;;;;;0.93;0.25;;;17.00;99.90;;;;;;4935528;29;20236;-72
2023/09/21 14:27:36;;;;;;;1.63;0.40;;;17.10;99.90;;;;;;4935417;29;20288;-70
2023/09/21 14:30:04;;;;;;;0.83;0.60;;;17.10;99.90;;;;;;4935387;29;20244;-75
2023/09/21 14:32:32;;;;;;;1.10;0.30;;;17.10;99.90;;;;;;4935142;29;20287;-75
2023/09/21 14:35:02;;;;;;;1.13;0.33;;;17.00;99.90;;;;;;4935473;29;20647;-76
2023/09/21 14:37:29;;;;;;;1.15;0.30;;;17.00;99.90;;;;;;4935417;29;20676;-75
2023/09/21 14:39:56;;;;;;;2.33;0.60;;;17.00;99.90;;;;;;4935144;29;20240;-73
2023/09/21 14:42:24;;;;;;;1.27;0.37;;;17.00;99.90;;;;;;4934731;29;20288;-73
2023/09/21 14:44:51;;;;;;;0.68;0.30;;;16.80;99.90;;;;;;4935176;29;20235;-76
2023/09/21 14:47:18;;;;;;;0.50;0.20;;;16.80;99.90;;;;;;4935057;29;20241;-76
2023/09/21 14:49:46;;;;;;;0.40;0.30;;;16.90;99.90;;;;;;4936589;29;20327;-75
2023/09/21 14:52:14;;;;;;;0.88;0.35;;;17.00;99.90;;;;;;4938554;29;20229;-76
2023/09/21 14:54:42;;;;;;;0.80;0.30;;;17.00;99.90;;;;;;4938001;29;20244;-74
2023/09/21 14:57:09;;;;;;;0.30;0.20;;;17.00;99.90;;;;;;4953135;28;20210;-73
2023/09/21 14:59:36;;;;;;;0.40;0.32;;;17.10;99.90;;;;;;4944216;29;20707;-75
2023/09/21 15:02:03;;;;;;;0.32;0.20;;;17.30;99.90;;;;;;4938214;29;20268;-73
2023/09/21 15:04:31;;;;;;;1.35;0.40;;;17.40;99.90;;;;;;4938560;29;20213;-76
2023/09/21 15:06:58;;;;;;;0.63;0.20;;;17.40;99.90;;;;;;4938370;29;20251;-74
2023/09/21 15:09:27;;;;;;;1.23;0.20;;;17.40;99.90;;;;;;4938041;29;21065;-76
2023/09/21 15:11:53;;;;;;;2.57;0.73;;;17.30;99.90;;;;;;4938047;29;20787;-73
2023/09/21 15:14:21;;;;;;;0.82;0.28;;;17.30;99.90;;;;;;4938119;29;20220;-76
2023/09/21 15:16:48;;;;;;;0.40;0.30;;;17.30;99.90;;;;;;4937993;29;20213;-73
2023/09/21 15:19:15;;;;;;;0.60;0.20;;;17.30;99.90;;;;;;4938150;29;20743;-73
2023/09/21 15:21:42;;;;;;;0.60;0.40;;;17.20;99.90;;;;;;4937796;29;20311;-73
2023/09/21 15:24:09;;;;;;;2.07;0.80;;;17.10;99.90;;;;;;4938103;29;20255;-73
2023/09/21 15:26:37;;;;;;;0.60;0.37;;;17.20;99.90;;;;;;4938123;29;20252;-74
2023/09/21 15:29:04;;;;;;;0.73;0.40;;;17.20;99.90;;;;;;4938107;29;20323;-73
2023/09/21 15:31:32;;;;;;;2.27;0.87;;;17.30;99.90;;;;;;4937907;29;20672;-75
2023/09/21 15:33:59;;;;;;;1.70;0.30;;;17.20;99.90;;;;;;4939001;29;20208;-72
2023/09/21 15:36:26;;;;;;;1.67;0.55;;;17.20;99.90;;;;;;4939955;28;20220;-73
2023/09/21 15:38:53;;;;;;;0.97;0.40;;;17.20;99.90;;;;;;4938048;29;20303;-77
2023/09/21 15:41:20;;;;;;;1.63;0.60;;;17.10;99.90;;;;;;4942489;28;20288;-76
2023/09/21 15:43:49;;;;;;;0.50;0.40;;;17.10;99.90;;;;;;4956560;29;20243;-76
2023/09/21 15:46:16;;;;;;;0.60;0.40;;;17.10;99.90;;;;;;4943533;29;20209;-73
2023/09/21 15:48:43;;;;;;;0.75;0.40;;;17.20;99.90;;;;;;4937826;29;20225;-75
2023/09/21 15:51:10;;;;;;;0.93;0.50;;;17.20;99.90;;;;;;4938202;29;20243;-77
2023/09/21 15:53:37;;;;;;;0.90;0.73;;;17.10;99.90;;;;;;4957613;29;20227;-73
2023/09/21 15:56:04;;;;;;;1.47;0.50;;;17.10;99.90;;;;;;4960041;29;20216;-75
2023/09/21 15:58:32;;;;;;;0.88;0.50;;;17.10;99.90;;;;;;4949273;29;20217;-73
2023/09/21 16:01:01;;;;;;;2.63;0.30;;;17.00;99.90;;;;;;4945233;29;20217;-73
2023/09/21 16:03:28;;;;;;;1.77;0.40;;;16.90;99.90;;;;;;4942274;29;20267;-74
2023/09/21 16:05:55;;;;;;;0.50;0.40;;;16.70;99.90;;;;;;4936992;29;20251;-73
2023/09/21 16:08:23;;;;;;;0.70;0.30;;;16.50;99.90;;;;;;4937157;29;20599;-72
2023/09/21 16:10:51;;;;;;;1.97;0.50;;;16.50;99.90;;;;;;4937114;29;20299;-72
2023/09/21 16:13:18;;;;;;;1.03;0.40;;;16.50;99.90;;;;;;4937005;29;20233;-72
2023/09/21 16:15:45;;;;;;;0.70;0.40;;;16.50;99.90;;;;;;4936845;29;20240;-73
2023/09/21 16:18:13;;;;;;;0.80;0.40;;;16.60;99.90;;;;;;4936635;29;20300;-74
2023/09/21 16:20:40;;;;;;;0.40;0.30;;;16.60;99.90;;;;;;4937096;29;20300;-74
2023/09/21 16:23:08;;;;;;;0.80;0.43;;;16.60;99.90;;;;;;4937807;29;20653;-74
2023/09/21 16:25:35;;;;;;;1.60;0.30;;;16.60;99.90;;;;;;4937255;29;20216;-74
2023/09/21 16:28:02;;;;;;;0.53;0.37;;;16.60;99.90;;;;;;4937101;29;20212;-74
2023/09/21 16:30:29;;;;;;;1.27;0.50;;;16.70;99.90;;;;;;4936695;29;20331;-74
2023/09/21 16:32:56;;;;;;;1.50;0.60;;;16.70;99.90;;;;;;4936457;29;20272;-74
2023/09/21 16:35:24;;;;;;;1.00;0.80;;;16.50;99.90;;;;;;4936597;29;20693;-74
2023/09/21 16:37:51;;;;;;;2.07;0.80;;;16.50;99.90;;;;;;4936512;29;20205;-74
2023/09/21 16:40:18;;;;;;;1.20;0.60;;;16.50;99.90;;;;;;4936782;29;20259;-75
2023/09/21 16:42:45;;;;;;;0.97;0.60;;;16.50;99.90;;;;;;4936369;29;20692;-75
2023/09/21 16:45:12;;;;;;;1.63;0.57;;;16.50;99.90;;;;;;4936302;29;20269;-74
2023/09/21 16:47:40;;;;;;;0.80;0.60;;;16.50;99.90;;;;;;4936536;29;20209;-74
2023/09/21 16:50:08;;;;;;;0.80;0.50;;;16.50;99.90;;;;;;4936527;29;20237;-72
2023/09/21 16:52:36;;;;;;;0.97;0.50;;;16.50;99.90;;;;;;4936288;29;20313;-74
2023/09/21 16:55:04;;;;;;;1.73;0.50;;;16.40;99.90;;;;;;4936034;29;20260;-73
2023/09/21 16:57:31;;;;;;;0.80;0.30;;;16.30;99.90;;;;;;4936242;29;20213;-73
2023/09/21 16:59:58;;;;;;;2.20;0.50;;;16.40;99.90;;;;;;4936737;29;20248;-75
2023/09/21 17:02:26;;;;;;;2.27;0.47;;;16.40;99.90;;;;;;4936128;29;20256;-74
2023/09/21 17:04:53;;;;;;;1.47;0.60;;;16.40;99.90;;;;;;4936428;29;20236;-73
2023/09/21 17:07:21;;;;;;;1.93;0.77;;;16.30;99.90;;;;;;4936051;29;20255;-75
2023/09/21 17:09:49;;;;;;;1.63;0.60;;;16.30;99.90;;;;;;4936232;29;20244;-74
2023/09/21 17:12:16;;;;;;;0.87;0.50;;;16.30;99.90;;;;;;4935923;29;20323;-74
2023/09/21 17:14:46;;;;;;;3.07;1.17;;;16.20;99.90;;;;;;4935742;29;20251;-74
2023/09/21 17:17:13;;;;;;;1.80;0.40;;;16.10;99.90;;;;;;4936047;29;20213;-74
2023/09/21 17:19:39;;;;;;;0.53;0.40;;;16.10;99.90;;;;;;4936040;29;20248;-73
2023/09/21 17:22:06;;;;;;;0.83;0.50;;;16.10;99.90;;;;;;4936041;29;20316;-74
2023/09/21 17:24:33;;;;;;;1.23;0.60;;;16.10;99.90;;;;;;4935848;29;20255;-74
2023/09/21 17:27:01;;;;;;;0.93;0.50;;;16.10;99.90;;;;;;4935890;29;20303;-73
2023/09/21 17:29:29;;;;;;;0.47;0.30;;;16.10;99.90;;;;;;4935742;29;20807;-73
2023/09/21 17:31:57;;;;;;;2.57;0.47;;;16.10;99.90;;;;;;4935493;29;20700;-74
2023/09/21 17:34:24;;;;;;;1.40;0.33;;;16.00;99.90;;;;;;4935857;29;20314;-73
2023/09/21 17:36:51;;;;;;;2.63;0.50;;;16.00;99.90;;;;;;4935621;29;20244;-73
2023/09/21 17:39:17;;;;;;;1.40;0.40;;;16.00;99.90;;;;;;4935603;29;20299;-75
2023/09/21 17:41:45;;;;;;;0.50;0.37;;;16.10;99.90;;;;;;4935985;29;20312;-75
2023/09/21 17:44:13;;;;;;;1.13;0.50;;;16.20;99.90;;;;;;4935605;29;20300;-74
2023/09/21 17:46:40;;;;;;;0.63;0.40;;;16.10;99.90;;;;;;4935744;29;20291;-74
2023/09/21 17:49:06;;;;;;;0.47;0.40;;;16.10;99.90;;;;;;4935665;29;20315;-74
2023/09/21 17:51:34;;;;;;;0.83;0.20;;;16.00;99.90;;;;;;4935557;29;20240;-74
2023/09/21 17:54:06;;;;;;;0.57;0.30;;;15.90;99.90;;;;;;4935664;29;20240;-73
2023/09/21 17:56:33;;;;;;;3.20;0.30;;;15.90;99.90;;;;;;4935560;29;20212;-75
2023/09/21 17:59:00;;;;;;;4.03;0.40;;;16.00;99.90;;;;;;4935627;29;20770;-73
2023/09/21 18:01:29;;;;;;;0.30;0.20;;;15.90;99.90;;;;;;4937628;28;20210;-73
2023/09/21 18:03:56;;;;;;;0.40;0.30;;;15.90;99.90;;;;;;4950113;29;20660;-72
2023/09/21 18:06:23;;;;;;;0.63;0.40;;;15.90;99.90;;;;;;4954329;28;20296;-73
2023/09/21 18:08:50;;;;;;;0.60;0.40;;;15.90;99.90;;;;;;4954322;28;20631;-73
2023/09/21 18:11:17;;;;;;;1.90;0.33;;;16.00;99.90;;;;;;4954024;28;20247;-74
2023/09/21 18:13:45;;;;;;;0.70;0.40;;;16.00;99.90;;;;;;4954388;28;20247;-74
2023/09/21 18:16:12;;;;;;;0.40;0.30;;;16.00;99.90;;;;;;4954305;28;20243;-72
2023/09/21 18:18:41;;;;;;;1.20;0.40;;;15.90;99.90;;;;;;4954262;28;20295;-74
2023/09/21 18:21:09;;;;;;;1.80;1.03;;;16.00;99.90;;;;;;4953838;28;20208;-73
2023/09/21 18:23:38;;;;;;;0.40;0.30;;;16.00;99.90;;;;;;4954287;28;20228;-73
2023/09/21 18:26:06;;;;;;;0.53;0.40;;;16.00;99.90;;;;;;4957740;28;20212;-73
2023/09/21 18:28:33;;;;;;;0.97;0.30;;;16.00;99.90;;;;;;4957796;28;20212;-73
2023/09/21 18:31:00;;;;;;;0.83;0.40;;;16.00;99.90;;;;;;4957548;28;20240;-73
2023/09/21 18:33:26;;;;;;;0.53;0.30;;;16.00;99.90;;;;;;4957508;28;20259;-74
2023/09/21 18:35:55;;;;;;;1.50;0.30;;;16.00;99.90;;;;;;4958039;28;20224;-73
2023/09/21 18:38:22;;;;;;;0.70;0.40;;;16.00;99.90;;;;;;4957627;28;20302;-74
2023/09/21 18:40:49;;;;;;;0.40;0.30;;;16.00;99.90;;;;;;4957793;28;20220;-73
2023/09/21 18:43:16;;;;;;;0.70;0.50;;;16.10;99.90;;;;;;4957957;28;20267;-73
2023/09/21 18:45:43;;;;;;;1.03;0.30;;;16.10;99.90;;;;;;4956696;28;20223;-73
2023/09/21 18:48:10;;;;;;;0.43;0.40;;;16.00;99.90;;;;;;4957188;28;20299;-73
2023/09/21 18:50:37;;;;;;;0.40;0.30;;;16.00;99.90;;;;;;4957516;28;20236;-73
2023/09/21 18:53:06;;;;;;;0.90;0.60;;;16.00;99.90;;;;;;4957512;28;20232;-73
2023/09/21 18:55:33;;;;;;;0.63;0.40;;;15.90;99.90;;;;;;4957582;28;20215;-73
2023/09/21 18:58:00;;;;;;;0.40;0.30;;;15.90;99.90;;;;;;4957463;28;20294;-74
2023/09/21 19:00:27;;;;;;;1.03;0.50;;;15.80;99.90;;;;;;4957382;28;20208;-73
2023/09/21 19:02:54;;;;;;;3.97;0.50;;;15.80;99.90;;;;;;4956302;28;20256;-73
2023/09/21 19:05:21;;;;;;;0.70;0.57;;;15.70;99.90;;;;;;4957101;28;20258;-73
2023/09/21 19:07:48;;;;;;;0.40;0.40;;;15.80;99.90;;;;;;4956916;28;20299;-73
2023/09/21 19:10:16;;;;;;;0.90;0.50;;;15.80;99.90;;;;;;4956810;28;20278;-73
2023/09/21 19:12:43;;;;;;;1.10;0.60;;;15.80;99.90;;;;;;4956855;28;20750;-73
2023/09/21 19:15:11;;;;;;;2.53;0.80;;;15.90;99.90;;;;;;4956818;28;20208;-73
2023/09/21 19:17:40;;;;;;;0.70;0.60;;;15.80;99.90;;;;;;4957016;28;20310;-73
2023/09/21 19:20:10;;;;;;;1.47;0.80;;;15.80;99.90;;;;;;4955992;28;20272;-74
2023/09/21 19:22:37;;;;;;;2.47;0.70;;;15.80;99.90;;;;;;4956438;28;20299;-73
2023/09/21 19:25:05;;;;;;;1.10;0.67;;;15.80;99.90;;;;;;4956893;28;20245;-73